createdAt,value
2023-03-19T00:00:15.220Z,100225.03
2023-03-19T00:03:24.592Z,100154.75
2023-03-19T00:06:15.042Z,100171.06
2023-03-19T00:09:01.469Z,100228.91
2023-03-19T00:12:09.597Z,100231.88
2023-03-19T00:14:56.185Z,100230.78
2023-03-19T00:17:43.442Z,100159.13
2023-03-19T00:20:29.922Z,100229.25
2023-03-19T00:23:17.378Z,100223.84
2023-03-19T00:26:04.221Z,100222.72
2023-03-19T00:28:51.062Z,100227.63
2023-03-19T00:31:37.723Z,100187.44
2023-03-19T00:34:24.644Z,100225.75
2023-03-19T00:37:12.413Z,100235.25
2023-03-19T00:40:00.026Z,100217.31
2023-03-19T00:42:46.560Z,100211.09
2023-03-19T00:45:36.284Z,100228.22
2023-03-19T00:48:23.385Z,100237.19
2023-03-19T00:51:11.015Z,100234.16
2023-03-19T00:53:57.566Z,100231.44
2023-03-19T00:56:44.413Z,100205.13
2023-03-19T00:59:30.632Z,100230.34
2023-03-19T01:02:17.520Z,100227.34
2023-03-19T01:05:09.513Z,100236.34
2023-03-19T01:07:57.438Z,100235.78
2023-03-19T01:10:45.025Z,100232.75
2023-03-19T01:13:32.529Z,100222.47
2023-03-19T01:16:18.789Z,100217.59
2023-03-19T01:19:06.225Z,100182.56
2023-03-19T01:21:55.376Z,100234.97
2023-03-19T01:24:44.339Z,100183.09
2023-03-19T01:27:30.980Z,100240.91
2023-03-19T01:30:18.091Z,100215.66
2023-03-19T01:33:34.058Z,100228.94
2023-03-19T01:36:23.943Z,100229.25
2023-03-19T01:39:20.733Z,100193.13
2023-03-19T01:42:07.770Z,100199.38
2023-03-19T01:45:31.796Z,100243.09
2023-03-19T01:48:44.009Z,100247.19
2023-03-19T01:51:38.244Z,100246.13
2023-03-19T01:54:39.063Z,100198.03
2023-03-19T01:57:33.998Z,100245.81
2023-03-19T02:00:51.512Z,100229.78
2023-03-19T02:03:38.381Z,100242.81
2023-03-19T02:06:47.189Z,100225.44
2023-03-19T02:09:40.883Z,100220.78
2023-03-19T02:12:28.473Z,100218.38
2023-03-19T02:15:16.136Z,100220.81
2023-03-19T02:18:03.222Z,100211.34
2023-03-19T02:21:14.589Z,100158.16
2023-03-19T02:24:19.908Z,100205.66
2023-03-19T02:27:19.113Z,100200.47
2023-03-19T02:30:20.920Z,100213.25
2023-03-19T02:33:12.763Z,100208.63
2023-03-19T02:36:00.675Z,100201.84
2023-03-19T02:38:53.914Z,100211.66
2023-03-19T02:41:43.471Z,100191.81
2023-03-19T02:44:30.410Z,100223.03
2023-03-19T02:47:18.276Z,100221.97
2023-03-19T02:50:05.433Z,100222.78
2023-03-19T02:52:57.006Z,100224.13
2023-03-19T02:55:43.671Z,100234.72
2023-03-19T02:58:30.878Z,100243.44
2023-03-19T03:01:17.925Z,100230.91
2023-03-19T03:04:05.608Z,100235.22
2023-03-19T03:06:52.218Z,100224.09
2023-03-19T03:09:39.174Z,100182.84
2023-03-19T03:12:26.414Z,100241.78
2023-03-19T03:15:13.043Z,100234.19
2023-03-19T03:17:59.299Z,100192.59
2023-03-19T03:20:46.212Z,100248.81
2023-03-19T03:23:33.197Z,100193.38
2023-03-19T03:26:22.102Z,100255.31
2023-03-19T03:29:08.691Z,100253.13
2023-03-19T03:31:57.943Z,100250.97
2023-03-19T03:34:47.396Z,100237.94
2023-03-19T03:37:34.101Z,100254.00
2023-03-19T03:40:23.533Z,100225.50
2023-03-19T03:43:10.755Z,100263.53
2023-03-19T03:45:57.718Z,100253.19
2023-03-19T03:48:44.543Z,100260.25
2023-03-19T03:51:31.439Z,100244.50
2023-03-19T03:54:18.553Z,100268.16
2023-03-19T03:57:05.258Z,100247.50
2023-03-19T03:59:54.724Z,100254.56
2023-03-19T04:02:42.147Z,100264.34
2023-03-19T04:05:32.836Z,100266.53
2023-03-19T04:08:19.515Z,100256.44
2023-03-19T04:11:09.643Z,100283.63
2023-03-19T04:13:57.828Z,100259.72
2023-03-19T04:16:45.576Z,100232.56
2023-03-19T04:19:32.247Z,100243.72
2023-03-19T04:22:21.378Z,100213.00
2023-03-19T04:25:11.192Z,100266.53
2023-03-19T04:27:59.287Z,100242.34
2023-03-19T04:30:48.883Z,100254.28
2023-03-19T04:33:36.420Z,100261.88
2023-03-19T04:36:22.739Z,100265.16
2023-03-19T04:39:10.184Z,100254.28
2023-03-19T04:41:57.793Z,100203.78
2023-03-19T04:44:54.662Z,100250.19
2023-03-19T04:47:42.817Z,100261.63
2023-03-19T04:50:30.910Z,100242.34
2023-03-19T04:53:20.807Z,100206.50
2023-03-19T04:56:09.859Z,100241.78
2023-03-19T04:58:56.338Z,100173.63
2023-03-19T05:01:43.691Z,100235.00
2023-03-19T05:04:31.612Z,100242.06
2023-03-19T05:07:27.721Z,100257.84
2023-03-19T05:10:15.569Z,100244.22
2023-03-19T05:13:07.542Z,100257.28
2023-03-19T05:15:58.303Z,100217.59
2023-03-19T05:18:47.965Z,100262.44
2023-03-19T05:21:34.595Z,100265.16
2023-03-19T05:24:21.634Z,100261.88
2023-03-19T05:27:08.175Z,100260.53
2023-03-19T05:30:08.370Z,100226.84
2023-03-19T05:33:22.672Z,100218.13
2023-03-19T05:36:10.672Z,100254.25
2023-03-19T05:39:14.608Z,100251.53
2023-03-19T05:42:03.040Z,100253.69
2023-03-19T05:44:50.770Z,100233.84
2023-03-19T05:47:42.161Z,100257.72
2023-03-19T05:50:28.531Z,100246.06
2023-03-19T05:53:30.450Z,100272.41
2023-03-19T05:56:35.764Z,100261.78
2023-03-19T05:59:49.096Z,100275.84
2023-03-19T06:02:56.265Z,100258.41
2023-03-19T06:05:56.004Z,100259.84
2023-03-19T06:08:52.466Z,100278.03
2023-03-19T06:11:47.830Z,100278.84
2023-03-19T06:14:52.884Z,100272.84
2023-03-19T06:17:58.185Z,100231.50
2023-03-19T06:20:48.409Z,100263.25
2023-03-19T06:23:39.396Z,100245.84
2023-03-19T06:26:27.764Z,100290.28
2023-03-19T06:29:17.513Z,100294.31
2023-03-19T06:32:08.022Z,100299.69
2023-03-19T06:34:58.502Z,100299.91
2023-03-19T06:37:44.961Z,100290.09
2023-03-19T06:40:33.301Z,100306.00
2023-03-19T06:43:28.720Z,100303.75
2023-03-19T06:46:15.994Z,100308.63
2023-03-19T06:49:02.135Z,100305.44
2023-03-19T06:51:49.191Z,100315.41
2023-03-19T06:54:37.878Z,100306.94
2023-03-19T06:57:25.101Z,100314.66
2023-03-19T07:00:13.269Z,100277.09
2023-03-19T07:03:00.205Z,100281.78
2023-03-19T07:05:49.128Z,100308.44
2023-03-19T07:08:37.645Z,100317.19
2023-03-19T07:11:24.469Z,100314.59
2023-03-19T07:14:12.189Z,100320.72
2023-03-19T07:16:58.444Z,100318.56
2023-03-19T07:19:45.492Z,100315.31
2023-03-19T07:22:31.768Z,100329.41
2023-03-19T07:25:19.159Z,100324.91
2023-03-19T07:28:06.111Z,100320.78
2023-03-19T07:30:55.733Z,100264.72
2023-03-19T07:33:42.811Z,100323.66
2023-03-19T07:36:29.436Z,100319.09
2023-03-19T07:39:15.600Z,100286.94
2023-03-19T07:42:02.766Z,100323.78
2023-03-19T07:44:49.424Z,100328.72
2023-03-19T07:47:36.510Z,100325.28
2023-03-19T07:50:22.762Z,100325.94
2023-03-19T07:53:09.771Z,100271.09
2023-03-19T07:55:57.083Z,100307.34
2023-03-19T07:58:46.824Z,100299.28
2023-03-19T08:01:33.103Z,100307.28
2023-03-19T08:04:20.039Z,100326.13
2023-03-19T08:07:07.024Z,100314.72
2023-03-19T08:09:54.652Z,100329.44
2023-03-19T08:12:44.601Z,100288.16
2023-03-19T08:15:31.748Z,100309.59
2023-03-19T08:18:18.205Z,100311.78
2023-03-19T08:21:08.081Z,100299.47
2023-03-19T08:23:57.574Z,100309.09
2023-03-19T08:26:48.431Z,100307.22
2023-03-19T08:29:35.574Z,100301.72
2023-03-19T08:32:24.864Z,100310.81
2023-03-19T08:35:11.759Z,100316.38
2023-03-19T08:37:58.610Z,100260.53
2023-03-19T08:40:45.314Z,100303.81
2023-03-19T08:43:33.484Z,100312.16
2023-03-19T08:46:19.932Z,100276.22
2023-03-19T08:49:06.760Z,100309.16
2023-03-19T08:51:52.915Z,100315.66
2023-03-19T08:54:40.812Z,100295.44
2023-03-19T08:57:31.516Z,100309.72
2023-03-19T09:00:19.707Z,100317.16
2023-03-19T09:03:07.064Z,100302.59
2023-03-19T09:05:53.892Z,100301.94
2023-03-19T09:08:41.618Z,100300.34
2023-03-19T09:11:32.221Z,100265.53
2023-03-19T09:14:20.102Z,100292.22
2023-03-19T09:17:07.789Z,100290.94
2023-03-19T09:19:54.414Z,100302.69
2023-03-19T09:22:44.253Z,100305.75
2023-03-19T09:25:30.895Z,100267.72
2023-03-19T09:28:17.896Z,100315.63
2023-03-19T09:31:07.399Z,100310.53
2023-03-19T09:33:54.467Z,100260.66
2023-03-19T09:36:41.386Z,100292.97
2023-03-19T09:39:28.510Z,100304.38
2023-03-19T09:42:38.345Z,100308.25
2023-03-19T09:45:32.761Z,100293.22
2023-03-19T09:48:32.612Z,100306.03
2023-03-19T09:51:28.305Z,100306.53
2023-03-19T09:54:34.422Z,100312.03
2023-03-19T09:57:21.812Z,100309.47
2023-03-19T10:00:17.507Z,100318.97
2023-03-19T10:03:42.007Z,100310.72
2023-03-19T10:06:35.777Z,100264.09
2023-03-19T10:09:45.157Z,100283.47
2023-03-19T10:12:48.694Z,100297.81
2023-03-19T10:15:37.055Z,100285.72
2023-03-19T10:18:29.215Z,100296.94
2023-03-19T10:21:37.630Z,100301.09
2023-03-19T10:24:43.495Z,100311.97
2023-03-19T10:27:32.941Z,100303.09
2023-03-19T10:30:23.527Z,100284.19
2023-03-19T10:33:21.636Z,100295.69
2023-03-19T10:36:14.091Z,100290.34
2023-03-19T10:39:11.421Z,100283.72
2023-03-19T10:42:37.111Z,100296.47
2023-03-19T10:45:35.849Z,100290.69
2023-03-19T10:48:28.115Z,100294.78
2023-03-19T10:51:17.968Z,100290.59
2023-03-19T10:54:19.220Z,100291.75
2023-03-19T10:57:06.040Z,100260.53
2023-03-19T10:59:55.289Z,100279.69
2023-03-19T11:02:49.251Z,100249.03
2023-03-19T11:05:36.088Z,100299.09
2023-03-19T11:08:35.733Z,100281.75
2023-03-19T11:11:49.177Z,100251.84
2023-03-19T11:14:39.581Z,100306.13
2023-03-19T11:17:37.700Z,100251.81
2023-03-19T11:20:36.562Z,100308.22
2023-03-19T11:23:23.502Z,100304.25
2023-03-19T11:26:19.239Z,100290.56
2023-03-19T11:29:06.149Z,100285.19
2023-03-19T11:32:18.732Z,100234.66
2023-03-19T11:35:16.682Z,100271.97
2023-03-19T11:38:05.243Z,100286.72
2023-03-19T11:41:24.619Z,100260.97
2023-03-19T11:44:23.571Z,100279.09
2023-03-19T11:47:26.713Z,100275.06
2023-03-19T11:50:22.710Z,100267.91
2023-03-19T11:53:36.737Z,100277.28
2023-03-19T11:56:47.388Z,100270.94
2023-03-19T11:59:52.642Z,100273.19
2023-03-19T12:02:43.174Z,100267.47
2023-03-19T12:05:36.916Z,100269.28
2023-03-19T12:08:23.970Z,100273.56
2023-03-19T12:11:16.355Z,100275.56
2023-03-19T12:14:33.468Z,100262.00
2023-03-19T12:17:41.280Z,100276.97
2023-03-19T12:20:43.607Z,100198.38
2023-03-19T12:23:55.472Z,100273.38
2023-03-19T12:26:54.562Z,100255.53
2023-03-19T12:29:56.112Z,100254.53
2023-03-19T12:33:04.800Z,100260.50
2023-03-19T12:35:55.041Z,100238.13
2023-03-19T12:38:51.853Z,100264.56
2023-03-19T12:41:41.825Z,100262.81
2023-03-19T12:44:54.319Z,100214.91
2023-03-19T12:47:45.089Z,100257.59
2023-03-19T12:50:32.845Z,100264.38
2023-03-19T12:53:54.589Z,100266.47
2023-03-19T12:57:03.275Z,100233.81
2023-03-19T12:59:59.412Z,100264.72
2023-03-19T13:03:05.017Z,100269.09
2023-03-19T13:06:37.350Z,100265.69
2023-03-19T13:09:37.705Z,100271.56
2023-03-19T13:12:26.714Z,100255.88
2023-03-19T13:15:37.900Z,100266.28
2023-03-19T13:18:41.221Z,100205.00
2023-03-19T13:21:33.191Z,100256.41
2023-03-19T13:24:35.132Z,100219.38
2023-03-19T13:27:31.347Z,100252.81
2023-03-19T13:30:19.464Z,100251.41
2023-03-19T13:33:08.120Z,100249.59
2023-03-19T13:35:56.268Z,100245.56
2023-03-19T13:38:50.941Z,100235.69
2023-03-19T13:41:39.288Z,100201.25
2023-03-19T13:44:39.558Z,100247.13
2023-03-19T13:47:26.759Z,100249.75
2023-03-19T13:50:20.666Z,100244.06
2023-03-19T13:53:26.619Z,100229.19
2023-03-19T13:56:29.085Z,100219.78
2023-03-19T13:59:24.616Z,100235.13
2023-03-19T14:02:26.456Z,100245.47
2023-03-19T14:05:20.176Z,100189.88
2023-03-19T14:08:18.615Z,100220.28
2023-03-19T14:11:07.746Z,100210.56
2023-03-19T14:13:55.204Z,100228.66
2023-03-19T14:16:44.467Z,100224.63
2023-03-19T14:19:34.073Z,100235.50
2023-03-19T14:22:32.002Z,100213.19
2023-03-19T14:25:21.267Z,100179.56
2023-03-19T14:28:11.338Z,100230.63
2023-03-19T14:30:59.770Z,100236.59
2023-03-19T14:34:30.373Z,100237.75
2023-03-19T14:37:30.216Z,100232.91
2023-03-19T14:40:23.328Z,100226.78
2023-03-19T14:43:47.141Z,100232.94
2023-03-19T14:47:01.705Z,100210.28
2023-03-19T14:50:09.112Z,100211.25
2023-03-19T14:53:12.647Z,100226.44
2023-03-19T15:05:46.597Z,100235.03
2023-03-19T15:10:06.646Z,100226.50
2023-03-19T15:13:42.776Z,100230.56
2023-03-19T15:22:07.706Z,100228.81
2023-03-19T15:25:58.079Z,100237.53
2023-03-19T15:34:29.468Z,100222.69
2023-03-19T15:42:28.603Z,100223.63
2023-03-19T15:56:25.883Z,100230.28
2023-03-19T15:59:34.234Z,100227.06
2023-03-19T16:07:33.965Z,100219.28
2023-03-19T16:11:26.229Z,100227.50
2023-03-19T16:24:52.448Z,100218.59
2023-03-19T18:09:15.284Z,100252.66
2023-03-19T18:19:59.401Z,100261.47
2023-03-19T18:23:15.623Z,100254.19
2023-03-19T18:36:47.402Z,100261.63
2023-03-19T18:39:42.766Z,100240.81
2023-03-19T18:46:52.420Z,100244.75
2023-03-19T18:49:53.517Z,100204.25
2023-03-19T18:53:48.488Z,100185.13
2023-03-19T18:56:52.280Z,100230.66
2023-03-19T19:00:43.137Z,100243.13
2023-03-19T19:03:54.313Z,100247.44
2023-03-19T19:07:10.617Z,100256.38
2023-03-19T19:10:23.412Z,100255.63
2023-03-19T19:13:17.571Z,100251.66
2023-03-19T19:16:14.318Z,100250.41
2023-03-19T19:22:56.775Z,100247.97
2023-03-19T19:37:23.580Z,100243.75
2023-03-19T19:40:22.236Z,100257.09
2023-03-19T19:43:19.066Z,100246.59
2023-03-19T19:46:06.155Z,100261.31
2023-03-19T19:48:53.146Z,100242.38
2023-03-19T19:51:43.081Z,100248.38
2023-03-19T19:54:47.985Z,100250.56
2023-03-19T19:58:01.549Z,100259.59
2023-03-19T20:01:02.742Z,100263.72
2023-03-19T20:04:14.654Z,100255.44
2023-03-19T20:28:11.335Z,100254.00
2023-03-19T20:31:18.216Z,100271.38
2023-03-19T20:34:38.443Z,100270.91
2023-03-19T20:37:29.998Z,100260.22
2023-03-19T20:40:20.861Z,100208.63
2023-03-19T20:46:49.814Z,100264.63
2023-03-19T20:49:38.011Z,100246.09
2023-03-19T20:52:27.511Z,100244.16
2023-03-19T20:55:20.828Z,100274.16
2023-03-19T20:58:25.778Z,100261.38
2023-03-19T21:01:19.016Z,100275.75
2023-03-19T21:04:25.567Z,100284.41
2023-03-19T21:07:20.782Z,100276.22
2023-03-19T21:10:40.465Z,100275.91
2023-03-19T21:13:29.990Z,100282.97
2023-03-19T21:16:26.264Z,100284.63
2023-03-19T21:19:16.165Z,100281.38
2023-03-19T21:22:10.216Z,100271.09
2023-03-19T21:25:14.158Z,100293.47
2023-03-19T21:28:12.812Z,100277.75
2023-03-19T21:31:11.441Z,100256.66
2023-03-19T21:34:00.094Z,100287.56
2023-03-19T21:36:49.578Z,100219.78
2023-03-19T21:39:38.547Z,100283.78
2023-03-19T21:42:25.896Z,100278.03
2023-03-19T21:45:24.297Z,100254.66
2023-03-19T21:48:27.333Z,100273.38
2023-03-19T21:51:15.147Z,100275.53
2023-03-19T21:54:17.648Z,100225.41
2023-03-19T21:57:07.471Z,100273.44
2023-03-19T22:00:01.554Z,100268.88
2023-03-19T22:02:55.954Z,100265.22
2023-03-19T22:05:45.841Z,100233.78
2023-03-19T22:08:36.218Z,100243.56
2023-03-19T22:11:35.122Z,100261.44
2023-03-19T22:14:37.675Z,100260.91
2023-03-19T22:17:41.741Z,100270.97
2023-03-19T22:20:31.011Z,100253.84
2023-03-19T22:23:18.616Z,100263.66
2023-03-19T22:26:24.363Z,100260.13
2023-03-19T22:29:28.446Z,100254.66
2023-03-19T22:32:37.245Z,100231.91
2023-03-19T22:35:24.223Z,100264.22
2023-03-19T22:38:18.036Z,100254.19
2023-03-19T22:41:31.135Z,100210.81
2023-03-19T22:44:24.326Z,100251.50
2023-03-19T22:50:29.610Z,100255.81
2023-03-19T22:53:29.280Z,100260.16
2023-03-19T22:56:21.885Z,100252.56
2023-03-19T22:59:08.832Z,100249.03
2023-03-19T23:01:58.479Z,100253.09
2023-03-19T23:04:45.735Z,100251.47
2023-03-19T23:07:36.341Z,100252.28
2023-03-19T23:10:27.960Z,100250.94
2023-03-19T23:13:18.190Z,100264.03
2023-03-19T23:16:16.618Z,100255.91
2023-03-19T23:19:03.138Z,100264.34
2023-03-19T23:21:53.779Z,100249.69
2023-03-19T23:24:45.078Z,100241.09
2023-03-19T23:27:32.425Z,100245.47
2023-03-19T23:30:27.831Z,100254.50
2023-03-19T23:33:16.084Z,100250.19
2023-03-19T23:36:03.186Z,100229.84
2023-03-19T23:38:51.663Z,100252.66
2023-03-19T23:41:48.422Z,100229.03
2023-03-19T23:44:38.350Z,100238.50
2023-03-19T23:47:26.034Z,100256.94
2023-03-19T23:50:17.880Z,100210.81
2023-03-19T23:53:05.046Z,100244.75
2023-03-19T23:55:54.862Z,100219.00
2023-03-19T23:58:45.574Z,100209.47
